Volcan De Teneguia — ECLA — position and weather

sailwx.info

Track history (hours):
 
Tides and Currents Weather Stations Pressure Air Temp Water Temp Dewpoint Dewpoint Depression Visibility Wind Speed Wind Dir Waves Ship Positions

Volcan De Teneguia

Last reported at 2015-May-17 05:07 UTC. Time now 2015-May-23 13:24 UTC.
Position N 31°51' W 011°28'.

Length 145 m; draft 5.8 m.

Type: Cargo ship. MMSI: 225317000.

Date/timePositionNaut miles runAvg speedWind from/ knotsBaromVisibWave heightAir tempDewpointWater temp
2015-May-17 05:07N 31°51' W 011°28'2313.3
2015-May-17 03:23N 31°35' W 011°47'280 7.6
2015-May-15 14:32N 28°17' W 015°36'16 1.8
2015-May-15 05:32N 28°12' W 015°18'1713.7
2015-May-15 04:20N 28°25' W 015°06'1114.2
2015-May-15 03:33N 28°33' W 014°58'2013.9
2015-May-15 02:06N 28°48' W 014°43'5114.2
2015-May-14 22:32N 29°27' W 014°06'1614.6
2015-May-14 21:26N 29°39' W 013°54'1414.7
2015-May-14 20:28N 29°50' W 013°43'1514.8
2015-May-14 19:28N 30°01' W 013°32'5714.6
2015-May-14 15:32N 30°44' W 012°47'1414.7
2015-May-14 14:33N 30°55' W 012°36'4313.6
2015-May-14 11:22N 31°28' W 012°03'2813.8
2015-May-14 09:19N 31°49' W 011°42'1614.3
2015-May-14 08:10N 32°02' W 011°29'914.3
2015-May-14 07:33N 32°08' W 011°22'5814.4
2015-May-14 03:30N 32°53' W 010°37'1414.7
2015-May-14 02:33N 33°03' W 010°26'3514.8
2015-May-14 00:09N 33°30' W 009°58'1315.1
2015-May-13 23:18N 33°39' W 009°48'1214.8
2015-May-13 22:31N 33°48' W 009°39'1414.6
2015-May-13 21:32N 33°59' W 009°28'1414.7
2015-May-13 20:34N 34°10' W 009°16'1514.7
2015-May-13 19:34N 34°21' W 009°05'1514.7
2015-May-13 18:34N 34°32' W 008°53'3014.7
2015-May-13 16:31N 34°55' W 008°30'1414.6
2015-May-13 15:33N 35°06' W 008°19'1414.6
2015-May-13 14:34N 35°16' W 008°07'1614.3
2015-May-13 13:28N 35°28' W 007°53'1314.3
2015-May-13 12:34N 35°38' W 007°43'1414.0
2015-May-13 11:33N 35°49' W 007°32'1414.2
2015-May-13 10:33N 35°60' W 007°21'1414.2
2015-May-13 09:33N 36°10' W 007°10'1914.6
2015-May-13 08:16N 36°24' W 006°54'1714.5
2015-May-13 07:07N 36°37' W 006°41'39 9.9
2015-May-13 03:12N 37°04' W 006°05'  
2015-May-10 20:29N 35°29' W 008°03'  
2015-May-07 10:26N 31°02' W 012°28'  
Track history (hours):
 
Tides and Currents Weather Stations Pressure Air Temp Water Temp Dewpoint Dewpoint Depression Visibility Wind Speed Wind Dir Waves Ship Positions

Volcan De Teneguia

Last reported at 2015-May-17 05:07 UTC. Time now 2015-May-23 13:24 UTC.
Position N 31°51' W 011°28'.

Length 145 m; draft 5.8 m.

Type: Cargo ship. MMSI: 225317000.

Date/timePositionNaut miles runAvg speedWind from/ knotsBaromVisibWave heightAir tempDewpointWater temp
2015-May-17 05:07N 31°51' W 011°28'2313.3
2015-May-17 03:23N 31°35' W 011°47'280 7.6
2015-May-15 14:32N 28°17' W 015°36'16 1.8
2015-May-15 05:32N 28°12' W 015°18'1713.7
2015-May-15 04:20N 28°25' W 015°06'1114.2
2015-May-15 03:33N 28°33' W 014°58'2013.9
2015-May-15 02:06N 28°48' W 014°43'5114.2
2015-May-14 22:32N 29°27' W 014°06'1614.6
2015-May-14 21:26N 29°39' W 013°54'1414.7
2015-May-14 20:28N 29°50' W 013°43'1514.8
2015-May-14 19:28N 30°01' W 013°32'5714.6
2015-May-14 15:32N 30°44' W 012°47'1414.7
2015-May-14 14:33N 30°55' W 012°36'4313.6
2015-May-14 11:22N 31°28' W 012°03'2813.8
2015-May-14 09:19N 31°49' W 011°42'1614.3
2015-May-14 08:10N 32°02' W 011°29'914.3
2015-May-14 07:33N 32°08' W 011°22'5814.4
2015-May-14 03:30N 32°53' W 010°37'1414.7
2015-May-14 02:33N 33°03' W 010°26'3514.8
2015-May-14 00:09N 33°30' W 009°58'1315.1
2015-May-13 23:18N 33°39' W 009°48'1214.8
2015-May-13 22:31N 33°48' W 009°39'1414.6
2015-May-13 21:32N 33°59' W 009°28'1414.7
2015-May-13 20:34N 34°10' W 009°16'1514.7
2015-May-13 19:34N 34°21' W 009°05'1514.7
2015-May-13 18:34N 34°32' W 008°53'3014.7
2015-May-13 16:31N 34°55' W 008°30'1414.6
2015-May-13 15:33N 35°06' W 008°19'1414.6
2015-May-13 14:34N 35°16' W 008°07'1614.3
2015-May-13 13:28N 35°28' W 007°53'1314.3
2015-May-13 12:34N 35°38' W 007°43'1414.0
2015-May-13 11:33N 35°49' W 007°32'1414.2
2015-May-13 10:33N 35°60' W 007°21'1414.2
2015-May-13 09:33N 36°10' W 007°10'1914.6
2015-May-13 08:16N 36°24' W 006°54'1714.5
2015-May-13 07:07N 36°37' W 006°41'39 9.9
2015-May-13 03:12N 37°04' W 006°05'  
2015-May-10 20:29N 35°29' W 008°03'  
2015-May-07 10:26N 31°02' W 012°28'  

Dump ship's entire track history